Flight Track Log - Related Links

Times and Time Zones

All times are in EDT time to prevent confusion due to time zone crossing. See the QXE2326 flight status page for this flight to view local times or setup timezone preferences in your user account.

Time Position Orientation Groundspeed Altitude Reporting Facility
EDT Latitude Longitude Course Direction KTS MPH feet Rate Location/Type
Sat 04:03:09 PM 47.3967 -120.1086 86° East 369 425 21,800  Level Seattle Center
Sat 04:04:10 PM 47.4039 -119.9558 86° East 373 429 22,600 595 Climbing Seattle Center
Sat 04:05:10 PM 47.4117 -119.8025 86° East 376 433 23,000 149 Climbing Seattle Center
Sat 04:06:11 PM 47.4167 -119.6431 87° East 388 447 22,900  Descending Seattle Center
Sat 04:07:12 PM 47.4242 -119.4861 86° East 386 444 23,000  Climbing Seattle Center
Sat 04:08:00 PM 47.5671 -119.1228 86° East  Level Estimated
Sat 04:08:13 PM 47.4289 -119.3275 87° East 387 445 22,900  Level Seattle Center
Sat 04:09:14 PM 47.4347 -119.1672 87° East 390 449 23,000 50 Climbing Seattle Center
Sat 04:10:14 PM 47.4397 -119.0075 87° East 390 449 23,000  Level Seattle Center
Sat 04:11:15 PM 47.4464 -118.8458 86° East 393 452 23,000  Level Seattle Center
Sat 04:12:16 PM 47.4517 -118.6875 87° East 391 450 23,000  Level Seattle Center
Sat 04:13:17 PM 47.4564 -118.4989 88° East 383 441 23,000  Level Seattle Center
Sat 04:14:17 PM 47.4614 -118.3406 87° East 386 444 23,000  Level Seattle Center
Sat 04:15:18 PM 47.4653 -118.1825 88° East 388 447 23,000  Level Seattle Center
Sat 04:16:19 PM 47.4703 -118.0258 87° East 385 443 23,000  Level Seattle Center
Sat 04:17:20 PM 47.4761 -117.8694 87° East 383 441 23,000  Level Seattle Center
Sat 04:18:20 PM 47.4794 -117.7131 88° East 383 441 23,000  Level Seattle Center
Sat 04:19:21 PM 47.4831 -117.5556 88° East 384 442 23,000  Level Seattle Center
Sat 04:20:22 PM 47.4858 -117.3986 88° East 385 443 23,000  Level Seattle Center
Sat 04:21:23 PM 47.4886 -117.2433 88° East 383 441 23,000  Level Seattle Center
Sat 04:22:23 PM 47.4900 -117.0900 89° East 385 443 23,000  Level Seattle Center
Sat 04:23:24 PM 47.4936 -116.9056 88° East 387 445 23,000  Level Seattle Center
Sat 04:24:25 PM 47.4964 -116.7500 88° East 383 441 23,000  Level Seattle Center
Sat 04:25:26 PM 47.4986 -116.5925 89° East 385 443 23,000  Level Seattle Center
Sat 04:26:26 PM 47.5000 -116.4336 89° East 387 445 23,000  Level Seattle Center
Sat 04:27:27 PM 47.5022 -116.2769 89° East 385 443 23,000  Level Seattle Center
Sat 04:28:28 PM 47.5031 -116.1183 89° East 386 444 23,000  Level Seattle Center
Sat 04:29:28 PM 47.5053 -115.9611 89° East 385 443 23,000  Level Seattle Center
Sat 04:30:29 PM 47.5067 -115.8036 89° East 384 442 23,000  Level Seattle Center
Sat 04:31:30 PM 47.5078 -115.6447 89° East 382 440 23,000  Level Seattle Center
Sat 04:32:31 PM 47.5086 -115.4881 89° East 383 441 23,000  Level Seattle Center
Sat 04:33:32 PM 47.5086 -115.3308 90° East 384 442 23,000  Level Seattle Center
Sat 04:34:32 PM 47.5089 -115.1728 90° East 386 444 23,000  Level Seattle Center
Sat 04:35:33 PM 47.5089 -115.0175 90° East 382 440 23,000  Level Seattle Center
Sat 04:36:34 PM 47.5092 -114.8631 90° East 380 437 23,000  Level Seattle Center
Sat 04:37:35 PM 47.5094 -114.6742 90° East 382 440 23,000  Level Seattle Center
Sat 04:38:02 PM 47.5078 -114.6108 92° East 382 440 23,000 -68 Level Salt Lake Center
Sat 04:39:03 PM 47.5067 -114.4522 91° East 387 445 22,900  Descending Salt Lake Center
Sat 04:40:04 PM 47.5053 -114.2939 91° East 387 445 23,000  Climbing Salt Lake Center
Sat 04:41:06 PM 47.5047 -114.1375 90° East 386 444 22,900  Descending Salt Lake Center
Sat 04:42:07 PM 47.5028 -113.9761 91° East 393 452 23,000 49 Climbing Salt Lake Center
Sat 04:43:08 PM 47.5022 -113.8153 90° East 393 452 23,000  Level Salt Lake Center
Sat 04:44:10 PM 47.4997 -113.6286 91° East 384 442 23,000 -49 Level Salt Lake Center
Sat 04:45:11 PM 47.4972 -113.4672 91° East 392 451 22,900  Descending Salt Lake Center
Sat 04:46:12 PM 47.4958 -113.3119 91° East 384 442 23,000  Climbing Salt Lake Center
Sat 04:47:13 PM 47.4931 -113.1522 91° East 387 445 22,900  Descending Salt Lake Center
Sat 04:48:15 PM 47.4897 -112.9919 92° East 392 451 23,000 49 Climbing Salt Lake Center
Sat 04:49:16 PM 47.4869 -112.8364 91° East 378 435 23,000 -49 Level Salt Lake Center
Sat 04:50:17 PM 47.4833 -112.6806 92° East 380 437 22,900 -780 Descending Salt Lake Center
Sat 04:51:19 PM 47.4792 -112.5297 92° East 372 428 21,400 -1,854 Descending Salt Lake Center
Sat 04:52:20 PM 47.4769 -112.3717 91° East 383 441 19,100 -2,488 Descending Salt Lake Center
Sat 04:53:22 PM 47.4728 -112.1811 92° East 388 447 16,300 -2,439 Descending Salt Lake Center
Sat 04:54:23 PM 47.4883 -112.0267 81° East 386 444 14,100 -1,869 Descending Salt Lake Center
Sat 04:55:24 PM 47.5133 -111.8814 76° East 374 430 12,500 -1,463 Descending Salt Lake Center
Sat 04:56:26 PM 47.5364 -111.7478 76° East 357 411 11,100 -1,366 Descending Salt Lake Center
Sat 04:57:27 PM 47.5597 -111.6286 74° East 330 380 9,700 -1,672 Descending Salt Lake Center
Sat 04:58:28 PM 47.5831 -111.5161 73° East 306 352 7,700 -1,756 Descending Salt Lake Center
Sat 04:59:30 PM 47.5892 -111.4044 85° East 287 330 6,100 -1,317 Descending Salt Lake Center
Sat 05:00:31 PM 47.5517 -111.3161 122° Southeast 240 276 5,000 -829 Descending Salt Lake Center
Sat 05:01:33 PM 47.5131 -111.3203 184° South 175 201 4,400 -634 Descending Salt Lake Center
Sat 05:02:34 PM 47.4911 -111.3514 224° Southwest 134 154 3,700 -689 Descending Salt Lake Center

Login

Don't have an account? Register now (free) for customized features, flight alerts, and more!